sensor_id;sensor_type;location;lat;lon;timestamp;temperature;humidity
44775;DHT22;31340;51.402;0.016;2023-02-01T00:01:11;7.80;98.30
44775;DHT22;31340;51.402;0.016;2023-02-01T00:03:39;7.80;98.00
44775;DHT22;31340;51.402;0.016;2023-02-01T00:06:06;7.80;98.10
44775;DHT22;31340;51.402;0.016;2023-02-01T00:08:34;7.80;98.20
44775;DHT22;31340;51.402;0.016;2023-02-01T00:11:05;7.80;98.20
44775;DHT22;31340;51.402;0.016;2023-02-01T00:13:34;7.80;98.30
44775;DHT22;31340;51.402;0.016;2023-02-01T00:18:42;7.70;98.50
44775;DHT22;31340;51.402;0.016;2023-02-01T00:21:11;7.70;98.50
44775;DHT22;31340;51.402;0.016;2023-02-01T00:23:38;7.70;98.60
44775;DHT22;31340;51.402;0.016;2023-02-01T00:26:11;7.70;98.70
44775;DHT22;31340;51.402;0.016;2023-02-01T00:28:41;7.70;98.80
44775;DHT22;31340;51.402;0.016;2023-02-01T00:31:08;7.70;98.80
44775;DHT22;31340;51.402;0.016;2023-02-01T00:33:36;7.70;98.90
44775;DHT22;31340;51.402;0.016;2023-02-01T00:36:06;7.60;98.90
44775;DHT22;31340;51.402;0.016;2023-02-01T00:38:36;7.60;99.00
44775;DHT22;31340;51.402;0.016;2023-02-01T00:41:12;7.60;99.10
44775;DHT22;31340;51.402;0.016;2023-02-01T00:43:40;7.50;99.10
44775;DHT22;31340;51.402;0.016;2023-02-01T00:46:08;7.60;99.20
44775;DHT22;31340;51.402;0.016;2023-02-01T00:48:36;7.50;99.30
44775;DHT22;31340;51.402;0.016;2023-02-01T00:51:09;7.50;99.40
44775;DHT22;31340;51.402;0.016;2023-02-01T00:53:37;7.50;99.50
44775;DHT22;31340;51.402;0.016;2023-02-01T00:56:06;7.50;99.60
44775;DHT22;31340;51.402;0.016;2023-02-01T00:58:34;7.50;99.70
44775;DHT22;31340;51.402;0.016;2023-02-01T01:03:43;7.40;99.90
44775;DHT22;31340;51.402;0.016;2023-02-01T01:06:16;7.40;99.90
44775;DHT22;31340;51.402;0.016;2023-02-01T01:08:44;7.40;99.90
44775;DHT22;31340;51.402;0.016;2023-02-01T01:11:14;7.40;99.90
44775;DHT22;31340;51.402;0.016;2023-02-01T01:13:43;7.40;99.90
44775;DHT22;31340;51.402;0.016;2023-02-01T01:16:11;7.40;99.90
44775;DHT22;31340;51.402;0.016;2023-02-01T01:18:39;7.40;99.90
44775;DHT22;31340;51.402;0.016;2023-02-01T01:21:08;7.40;99.90
44775;DHT22;31340;51.402;0.016;2023-02-01T01:23:37;7.40;99.90
44775;DHT22;31340;51.402;0.016;2023-02-01T01:26:06;7.30;99.90
44775;DHT22;31340;51.402;0.016;2023-02-01T01:28:34;7.30;99.90
44775;DHT22;31340;51.402;0.016;2023-02-01T01:31:02;7.40;99.90
44775;DHT22;31340;51.402;0.016;2023-02-01T01:33:30;7.30;99.90
44775;DHT22;31340;51.402;0.016;2023-02-01T01:35:58;7.30;99.90
44775;DHT22;31340;51.402;0.016;2023-02-01T01:38:26;7.30;99.90
44775;DHT22;31340;51.402;0.016;2023-02-01T01:40:53;7.30;99.90
44775;DHT22;31340;51.402;0.016;2023-02-01T01:43:21;7.30;99.90
44775;DHT22;31340;51.402;0.016;2023-02-01T01:45:51;7.30;99.90
44775;DHT22;31340;51.402;0.016;2023-02-01T01:48:28;7.30;99.90
44775;DHT22;31340;51.402;0.016;2023-02-01T01:51:04;7.30;99.90
44775;DHT22;31340;51.402;0.016;2023-02-01T01:53:45;7.30;99.90
44775;DHT22;31340;51.402;0.016;2023-02-01T01:56:14;7.30;99.90
44775;DHT22;31340;51.402;0.016;2023-02-01T01:58:42;7.30;99.90
44775;DHT22;31340;51.402;0.016;2023-02-01T02:01:10;7.30;99.90
44775;DHT22;31340;51.402;0.016;2023-02-01T02:03:43;7.30;99.90
44775;DHT22;31340;51.402;0.016;2023-02-01T02:08:54;7.30;99.90
44775;DHT22;31340;51.402;0.016;2023-02-01T02:11:22;7.30;99.90
44775;DHT22;31340;51.402;0.016;2023-02-01T02:13:52;7.30;99.90
44775;DHT22;31340;51.402;0.016;2023-02-01T02:25:00;7.30;99.90
44775;DHT22;31340;51.402;0.016;2023-02-01T02:39:33;7.30;99.90
44775;DHT22;31340;51.402;0.016;2023-02-01T02:42:11;7.30;99.90
44775;DHT22;31340;51.402;0.016;2023-02-01T02:45:21;7.30;99.90
44775;DHT22;31340;51.402;0.016;2023-02-01T02:56:48;7.40;99.90
44775;DHT22;31340;51.402;0.016;2023-02-01T02:59:38;7.30;99.90
44775;DHT22;31340;51.402;0.016;2023-02-01T03:02:26;7.30;99.90
44775;DHT22;31340;51.402;0.016;2023-02-01T03:05:13;7.40;99.90
44775;DHT22;31340;51.402;0.016;2023-02-01T03:08:04;7.40;99.90
44775;DHT22;31340;51.402;0.016;2023-02-01T03:10:48;7.40;99.90
44775;DHT22;31340;51.402;0.016;2023-02-01T03:15:53;7.40;99.90
44775;DHT22;31340;51.402;0.016;2023-02-01T03:18:44;7.50;99.90
44775;DHT22;31340;51.402;0.016;2023-02-01T03:21:40;7.50;99.90
44775;DHT22;31340;51.402;0.016;2023-02-01T03:26:53;7.50;99.90
44775;DHT22;31340;51.402;0.016;2023-02-01T03:29:27;7.50;99.90
44775;DHT22;31340;51.402;0.016;2023-02-01T03:31:57;7.60;99.90
44775;DHT22;31340;51.402;0.016;2023-02-01T03:34:25;7.60;99.90
44775;DHT22;31340;51.402;0.016;2023-02-01T03:37:06;7.70;99.90
44775;DHT22;31340;51.402;0.016;2023-02-01T03:39:46;7.70;99.90
44775;DHT22;31340;51.402;0.016;2023-02-01T03:42:31;7.70;99.90
44775;DHT22;31340;51.402;0.016;2023-02-01T03:47:37;7.70;99.90
44775;DHT22;31340;51.402;0.016;2023-02-01T03:50:11;7.70;99.90
44775;DHT22;31340;51.402;0.016;2023-02-01T03:53:05;7.70;99.90
44775;DHT22;31340;51.402;0.016;2023-02-01T03:55:36;7.70;99.90
44775;DHT22;31340;51.402;0.016;2023-02-01T03:58:08;7.70;99.90
44775;DHT22;31340;51.402;0.016;2023-02-01T04:00:37;7.70;99.90
44775;DHT22;31340;51.402;0.016;2023-02-01T04:03:06;7.70;99.90
44775;DHT22;31340;51.402;0.016;2023-02-01T04:05:34;7.70;99.90
44775;DHT22;31340;51.402;0.016;2023-02-01T04:08:04;7.70;99.90
44775;DHT22;31340;51.402;0.016;2023-02-01T04:10:32;7.70;99.90
44775;DHT22;31340;51.402;0.016;2023-02-01T04:13:00;7.70;99.90
44775;DHT22;31340;51.402;0.016;2023-02-01T04:15:27;7.70;99.90
44775;DHT22;31340;51.402;0.016;2023-02-01T04:17:55;7.70;99.90
44775;DHT22;31340;51.402;0.016;2023-02-01T04:20:22;7.70;99.90
44775;DHT22;31340;51.402;0.016;2023-02-01T04:22:51;7.70;99.90
44775;DHT22;31340;51.402;0.016;2023-02-01T04:25:18;7.70;99.90
44775;DHT22;31340;51.402;0.016;2023-02-01T04:27:46;7.70;99.90
44775;DHT22;31340;51.402;0.016;2023-02-01T04:30:15;7.70;99.90
44775;DHT22;31340;51.402;0.016;2023-02-01T04:32:42;7.70;99.90
44775;DHT22;31340;51.402;0.016;2023-02-01T04:35:10;7.70;99.90
44775;DHT22;31340;51.402;0.016;2023-02-01T04:37:39;7.70;99.90
44775;DHT22;31340;51.402;0.016;2023-02-01T04:40:07;7.70;99.90
44775;DHT22;31340;51.402;0.016;2023-02-01T04:42:35;7.70;99.90
44775;DHT22;31340;51.402;0.016;2023-02-01T04:45:03;7.70;99.90
44775;DHT22;31340;51.402;0.016;2023-02-01T04:47:30;7.70;99.90
44775;DHT22;31340;51.402;0.016;2023-02-01T04:49:58;7.70;99.90
44775;DHT22;31340;51.402;0.016;2023-02-01T04:52:26;7.70;99.90
44775;DHT22;31340;51.402;0.016;2023-02-01T04:54:54;7.70;99.90
44775;DHT22;31340;51.402;0.016;2023-02-01T04:57:26;7.60;99.90
44775;DHT22;31340;51.402;0.016;2023-02-01T04:59:54;7.60;99.90
44775;DHT22;31340;51.402;0.016;2023-02-01T05:02:21;7.60;99.90
44775;DHT22;31340;51.402;0.016;2023-02-01T05:04:49;7.70;99.90
44775;DHT22;31340;51.402;0.016;2023-02-01T05:07:18;7.70;99.90
44775;DHT22;31340;51.402;0.016;2023-02-01T05:09:45;7.60;99.90
44775;DHT22;31340;51.402;0.016;2023-02-01T05:12:13;7.70;99.90
44775;DHT22;31340;51.402;0.016;2023-02-01T05:14:59;7.70;99.90
44775;DHT22;31340;51.402;0.016;2023-02-01T05:17:27;7.60;99.90
44775;DHT22;31340;51.402;0.016;2023-02-01T05:19:55;7.60;99.90
44775;DHT22;31340;51.402;0.016;2023-02-01T05:22:22;7.60;99.90
44775;DHT22;31340;51.402;0.016;2023-02-01T05:24:50;7.60;99.90
44775;DHT22;31340;51.402;0.016;2023-02-01T05:27:18;7.60;99.90
44775;DHT22;31340;51.402;0.016;2023-02-01T05:29:45;7.60;99.90
44775;DHT22;31340;51.402;0.016;2023-02-01T05:32:13;7.70;99.90
44775;DHT22;31340;51.402;0.016;2023-02-01T05:34:50;7.60;99.90
44775;DHT22;31340;51.402;0.016;2023-02-01T05:37:17;7.60;99.90
44775;DHT22;31340;51.402;0.016;2023-02-01T05:39:46;7.60;99.90
44775;DHT22;31340;51.402;0.016;2023-02-01T05:42:14;7.60;99.90
44775;DHT22;31340;51.402;0.016;2023-02-01T05:44:41;7.60;99.90
44775;DHT22;31340;51.402;0.016;2023-02-01T05:47:09;7.60;99.90
44775;DHT22;31340;51.402;0.016;2023-02-01T05:49:37;7.60;99.90
44775;DHT22;31340;51.402;0.016;2023-02-01T05:52:05;7.60;99.90
44775;DHT22;31340;51.402;0.016;2023-02-01T05:54:32;7.60;99.90
44775;DHT22;31340;51.402;0.016;2023-02-01T05:57:00;7.60;99.90
44775;DHT22;31340;51.402;0.016;2023-02-01T05:59:28;7.60;99.90
44775;DHT22;31340;51.402;0.016;2023-02-01T06:01:56;7.60;99.90
44775;DHT22;31340;51.402;0.016;2023-02-01T06:04:24;7.60;99.90
44775;DHT22;31340;51.402;0.016;2023-02-01T06:06:52;7.60;99.90
44775;DHT22;31340;51.402;0.016;2023-02-01T06:09:19;7.60;99.90
44775;DHT22;31340;51.402;0.016;2023-02-01T06:11:47;7.60;99.90
44775;DHT22;31340;51.402;0.016;2023-02-01T06:14:16;7.70;99.90
44775;DHT22;31340;51.402;0.016;2023-02-01T06:16:43;7.70;99.90
44775;DHT22;31340;51.402;0.016;2023-02-01T06:19:13;7.70;99.90
44775;DHT22;31340;51.402;0.016;2023-02-01T06:21:40;7.70;99.90
44775;DHT22;31340;51.402;0.016;2023-02-01T06:24:08;7.70;99.90
44775;DHT22;31340;51.402;0.016;2023-02-01T06:26:37;7.70;99.90
44775;DHT22;31340;51.402;0.016;2023-02-01T06:29:07;7.70;99.90
44775;DHT22;31340;51.402;0.016;2023-02-01T06:31:34;7.70;99.90
44775;DHT22;31340;51.402;0.016;2023-02-01T06:34:02;7.70;99.90
44775;DHT22;31340;51.402;0.016;2023-02-01T06:36:30;7.70;99.90
44775;DHT22;31340;51.402;0.016;2023-02-01T06:38:58;7.70;99.90
44775;DHT22;31340;51.402;0.016;2023-02-01T06:41:27;7.70;99.90
44775;DHT22;31340;51.402;0.016;2023-02-01T06:43:56;7.70;99.90
44775;DHT22;31340;51.402;0.016;2023-02-01T06:46:23;7.70;99.90
44775;DHT22;31340;51.402;0.016;2023-02-01T06:48:51;7.70;99.90
44775;DHT22;31340;51.402;0.016;2023-02-01T06:51:20;7.70;99.90
44775;DHT22;31340;51.402;0.016;2023-02-01T06:53:49;7.70;99.90
44775;DHT22;31340;51.402;0.016;2023-02-01T06:56:17;7.70;99.90
44775;DHT22;31340;51.402;0.016;2023-02-01T06:58:45;7.70;99.90
44775;DHT22;31340;51.402;0.016;2023-02-01T07:01:13;7.70;99.90
44775;DHT22;31340;51.402;0.016;2023-02-01T07:03:41;7.70;99.90
44775;DHT22;31340;51.402;0.016;2023-02-01T07:06:09;7.70;99.90
44775;DHT22;31340;51.402;0.016;2023-02-01T07:08:40;7.80;99.90
44775;DHT22;31340;51.402;0.016;2023-02-01T07:11:13;7.70;99.90
44775;DHT22;31340;51.402;0.016;2023-02-01T07:13:41;7.80;99.90
44775;DHT22;31340;51.402;0.016;2023-02-01T07:16:11;7.80;99.90
44775;DHT22;31340;51.402;0.016;2023-02-01T07:18:39;7.80;99.90
44775;DHT22;31340;51.402;0.016;2023-02-01T07:21:07;7.80;99.90
44775;DHT22;31340;51.402;0.016;2023-02-01T07:23:35;7.80;99.90
44775;DHT22;31340;51.402;0.016;2023-02-01T07:26:04;7.80;99.90
44775;DHT22;31340;51.402;0.016;2023-02-01T07:28:35;7.80;99.90
44775;DHT22;31340;51.402;0.016;2023-02-01T07:31:06;7.80;99.90
44775;DHT22;31340;51.402;0.016;2023-02-01T07:33:35;7.70;99.90
44775;DHT22;31340;51.402;0.016;2023-02-01T07:36:04;7.80;99.90
44775;DHT22;31340;51.402;0.016;2023-02-01T07:38:33;7.80;99.90
44775;DHT22;31340;51.402;0.016;2023-02-01T07:41:03;7.80;99.90
44775;DHT22;31340;51.402;0.016;2023-02-01T07:43:31;7.80;99.90
44775;DHT22;31340;51.402;0.016;2023-02-01T07:45:59;7.80;99.90
44775;DHT22;31340;51.402;0.016;2023-02-01T07:48:27;7.80;99.90
44775;DHT22;31340;51.402;0.016;2023-02-01T07:51:05;7.80;99.90
44775;DHT22;31340;51.402;0.016;2023-02-01T07:53:34;7.90;99.90
44775;DHT22;31340;51.402;0.016;2023-02-01T07:56:03;7.90;99.90
44775;DHT22;31340;51.402;0.016;2023-02-01T07:58:30;7.90;99.90
44775;DHT22;31340;51.402;0.016;2023-02-01T08:00:58;7.80;99.90
44775;DHT22;31340;51.402;0.016;2023-02-01T08:03:44;7.90;99.90
44775;DHT22;31340;51.402;0.016;2023-02-01T08:06:12;7.90;99.90
44775;DHT22;31340;51.402;0.016;2023-02-01T08:08:39;7.90;99.90
44775;DHT22;31340;51.402;0.016;2023-02-01T08:11:07;7.90;99.90
44775;DHT22;31340;51.402;0.016;2023-02-01T08:13:34;7.90;99.90
44775;DHT22;31340;51.402;0.016;2023-02-01T08:16:05;7.90;99.90
44775;DHT22;31340;51.402;0.016;2023-02-01T08:18:34;7.90;99.90
44775;DHT22;31340;51.402;0.016;2023-02-01T08:21:15;7.90;99.90
44775;DHT22;31340;51.402;0.016;2023-02-01T08:23:43;7.90;99.90
44775;DHT22;31340;51.402;0.016;2023-02-01T08:28:49;7.90;99.90
44775;DHT22;31340;51.402;0.016;2023-02-01T08:31:17;7.90;99.90
44775;DHT22;31340;51.402;0.016;2023-02-01T08:33:53;7.90;99.90
44775;DHT22;31340;51.402;0.016;2023-02-01T08:36:22;7.90;99.90
44775;DHT22;31340;51.402;0.016;2023-02-01T08:38:50;7.90;99.90
44775;DHT22;31340;51.402;0.016;2023-02-01T08:41:21;8.00;99.90
44775;DHT22;31340;51.402;0.016;2023-02-01T08:43:52;8.00;99.90
44775;DHT22;31340;51.402;0.016;2023-02-01T08:46:22;8.00;99.90
44775;DHT22;31340;51.402;0.016;2023-02-01T08:48:50;8.10;99.90
44775;DHT22;31340;51.402;0.016;2023-02-01T08:51:20;8.10;99.90
44775;DHT22;31340;51.402;0.016;2023-02-01T08:53:48;8.10;99.90
44775;DHT22;31340;51.402;0.016;2023-02-01T08:56:18;8.10;99.90
44775;DHT22;31340;51.402;0.016;2023-02-01T08:58:45;8.20;99.90
44775;DHT22;31340;51.402;0.016;2023-02-01T09:01:15;8.20;99.90
44775;DHT22;31340;51.402;0.016;2023-02-01T09:03:44;8.20;99.90
44775;DHT22;31340;51.402;0.016;2023-02-01T09:06:14;8.20;99.90
44775;DHT22;31340;51.402;0.016;2023-02-01T09:08:43;8.30;99.90
44775;DHT22;31340;51.402;0.016;2023-02-01T09:11:14;8.30;99.90
44775;DHT22;31340;51.402;0.016;2023-02-01T09:13:44;8.30;99.90
44775;DHT22;31340;51.402;0.016;2023-02-01T09:16:12;8.30;99.90
44775;DHT22;31340;51.402;0.016;2023-02-01T09:18:40;8.30;99.90
44775;DHT22;31340;51.402;0.016;2023-02-01T09:21:23;8.40;99.90
44775;DHT22;31340;51.402;0.016;2023-02-01T09:23:51;8.40;99.90
44775;DHT22;31340;51.402;0.016;2023-02-01T09:26:19;8.50;99.90
44775;DHT22;31340;51.402;0.016;2023-02-01T09:28:57;8.50;99.90
44775;DHT22;31340;51.402;0.016;2023-02-01T09:31:25;8.50;99.90
44775;DHT22;31340;51.402;0.016;2023-02-01T09:33:54;8.60;99.90
44775;DHT22;31340;51.402;0.016;2023-02-01T09:36:22;8.60;99.90
44775;DHT22;31340;51.402;0.016;2023-02-01T09:38:51;8.70;99.90
44775;DHT22;31340;51.402;0.016;2023-02-01T09:47:16;8.90;99.90
44775;DHT22;31340;51.402;0.016;2023-02-01T09:50:09;9.00;99.90
44775;DHT22;31340;51.402;0.016;2023-02-01T09:52:50;9.00;99.90
44775;DHT22;31340;51.402;0.016;2023-02-01T09:55:43;9.10;99.90
44775;DHT22;31340;51.402;0.016;2023-02-01T09:58:27;9.20;99.90
44775;DHT22;31340;51.402;0.016;2023-02-01T10:00:59;9.20;99.90
44775;DHT22;31340;51.402;0.016;2023-02-01T10:03:34;9.30;99.90
44775;DHT22;31340;51.402;0.016;2023-02-01T10:14:46;9.50;99.90
44775;DHT22;31340;51.402;0.016;2023-02-01T10:17:29;9.60;99.90
44775;DHT22;31340;51.402;0.016;2023-02-01T10:20:11;9.60;99.90
44775;DHT22;31340;51.402;0.016;2023-02-01T10:25:58;9.70;99.60
44775;DHT22;31340;51.402;0.016;2023-02-01T10:28:33;9.80;99.60
44775;DHT22;31340;51.402;0.016;2023-02-01T10:31:01;9.90;99.50
44775;DHT22;31340;51.402;0.016;2023-02-01T10:33:35;10.00;99.40
44775;DHT22;31340;51.402;0.016;2023-02-01T10:36:14;10.10;99.50
44775;DHT22;31340;51.402;0.016;2023-02-01T10:38:44;10.20;99.20
44775;DHT22;31340;51.402;0.016;2023-02-01T10:41:17;10.20;99.00
44775;DHT22;31340;51.402;0.016;2023-02-01T10:43:54;10.30;98.80
44775;DHT22;31340;51.402;0.016;2023-02-01T10:46:23;10.40;98.70
44775;DHT22;31340;51.402;0.016;2023-02-01T10:48:53;10.40;98.50
44775;DHT22;31340;51.402;0.016;2023-02-01T10:51:24;10.50;98.40
44775;DHT22;31340;51.402;0.016;2023-02-01T10:54:00;10.50;98.20
44775;DHT22;31340;51.402;0.016;2023-02-01T10:56:30;10.60;98.20
44775;DHT22;31340;51.402;0.016;2023-02-01T10:59:11;10.60;98.00
44775;DHT22;31340;51.402;0.016;2023-02-01T11:01:43;10.60;97.90
44775;DHT22;31340;51.402;0.016;2023-02-01T11:04:19;10.60;97.90
44775;DHT22;31340;51.402;0.016;2023-02-01T11:07:05;10.70;97.90
44775;DHT22;31340;51.402;0.016;2023-02-01T11:09:39;10.80;97.60
44775;DHT22;31340;51.402;0.016;2023-02-01T11:12:30;10.80;97.70
44775;DHT22;31340;51.402;0.016;2023-02-01T11:17:35;10.80;97.40
44775;DHT22;31340;51.402;0.016;2023-02-01T11:20:14;10.80;97.40
44775;DHT22;31340;51.402;0.016;2023-02-01T11:22:53;10.80;97.80
44775;DHT22;31340;51.402;0.016;2023-02-01T11:25:21;10.90;97.50
44775;DHT22;31340;51.402;0.016;2023-02-01T11:27:54;10.90;97.60
44775;DHT22;31340;51.402;0.016;2023-02-01T11:30:37;10.90;97.30
44775;DHT22;31340;51.402;0.016;2023-02-01T11:33:12;11.00;97.40
44775;DHT22;31340;51.402;0.016;2023-02-01T11:35:41;11.10;97.30
44775;DHT22;31340;51.402;0.016;2023-02-01T11:40:48;11.20;97.10
44775;DHT22;31340;51.402;0.016;2023-02-01T11:43:26;11.30;97.20
44775;DHT22;31340;51.402;0.016;2023-02-01T11:46:02;11.40;96.80
44775;DHT22;31340;51.402;0.016;2023-02-01T11:48:31;11.40;96.40
44775;DHT22;31340;51.402;0.016;2023-02-01T11:56:45;11.50;96.30
44775;DHT22;31340;51.402;0.016;2023-02-01T11:59:45;11.60;96.30
44775;DHT22;31340;51.402;0.016;2023-02-01T12:08:29;11.60;95.90
44775;DHT22;31340;51.402;0.016;2023-02-01T12:18:05;11.70;96.00
44775;DHT22;31340;51.402;0.016;2023-02-01T12:26:04;12.00;96.00
44775;DHT22;31340;51.402;0.016;2023-02-01T12:28:48;12.00;95.80
44775;DHT22;31340;51.402;0.016;2023-02-01T12:31:25;12.10;95.70
44775;DHT22;31340;51.402;0.016;2023-02-01T12:42:32;12.60;95.30
44775;DHT22;31340;51.402;0.016;2023-02-01T12:47:53;12.80;94.80
44775;DHT22;31340;51.402;0.016;2023-02-01T12:50:28;12.80;94.90
44775;DHT22;31340;51.402;0.016;2023-02-01T12:53:15;12.90;94.50
44775;DHT22;31340;51.402;0.016;2023-02-01T12:55:53;13.00;94.30
44775;DHT22;31340;51.402;0.016;2023-02-01T12:58:32;13.00;94.50
44775;DHT22;31340;51.402;0.016;2023-02-01T13:01:03;13.00;94.20
44775;DHT22;31340;51.402;0.016;2023-02-01T13:03:44;13.00;93.80
44775;DHT22;31340;51.402;0.016;2023-02-01T13:06:20;13.00;93.80
44775;DHT22;31340;51.402;0.016;2023-02-01T13:11:42;12.90;93.70
44775;DHT22;31340;51.402;0.016;2023-02-01T13:16:56;13.00;93.80
44775;DHT22;31340;51.402;0.016;2023-02-01T13:19:36;13.00;93.60
44775;DHT22;31340;51.402;0.016;2023-02-01T13:22:12;13.10;93.80
44775;DHT22;31340;51.402;0.016;2023-02-01T13:25:15;13.10;93.70
44775;DHT22;31340;51.402;0.016;2023-02-01T13:27:46;13.30;93.40
44775;DHT22;31340;51.402;0.016;2023-02-01T13:32:57;13.40;93.50
44775;DHT22;31340;51.402;0.016;2023-02-01T13:42:04;13.70;92.40
44775;DHT22;31340;51.402;0.016;2023-02-01T13:44:43;13.80;92.30
44775;DHT22;31340;51.402;0.016;2023-02-01T13:49:48;13.80;92.00
44775;DHT22;31340;51.402;0.016;2023-02-01T13:52:27;13.80;92.00
44775;DHT22;31340;51.402;0.016;2023-02-01T13:55:13;13.80;91.90
44775;DHT22;31340;51.402;0.016;2023-02-01T13:57:43;13.80;91.80
44775;DHT22;31340;51.402;0.016;2023-02-01T14:00:31;13.70;91.80
44775;DHT22;31340;51.402;0.016;2023-02-01T14:03:09;13.70;91.40
44775;DHT22;31340;51.402;0.016;2023-02-01T14:10:55;13.40;91.60
44775;DHT22;31340;51.402;0.016;2023-02-01T14:13:40;13.40;91.70
44775;DHT22;31340;51.402;0.016;2023-02-01T14:16:12;13.40;91.90
44775;DHT22;31340;51.402;0.016;2023-02-01T14:21:18;13.30;92.10
44775;DHT22;31340;51.402;0.016;2023-02-01T14:29:07;13.20;92.10
44775;DHT22;31340;51.402;0.016;2023-02-01T14:31:53;13.10;92.00
44775;DHT22;31340;51.402;0.016;2023-02-01T14:34:55;13.10;92.20
44775;DHT22;31340;51.402;0.016;2023-02-01T14:40:06;13.00;92.30
44775;DHT22;31340;51.402;0.016;2023-02-01T14:50:37;13.00;92.50
44775;DHT22;31340;51.402;0.016;2023-02-01T14:55:59;13.10;92.50
44775;DHT22;31340;51.402;0.016;2023-02-01T15:04:14;13.20;92.60
44775;DHT22;31340;51.402;0.016;2023-02-01T15:06:51;13.30;92.50
44775;DHT22;31340;51.402;0.016;2023-02-01T15:14:41;13.30;92.10
44775;DHT22;31340;51.402;0.016;2023-02-01T15:17:20;13.30;92.10
44775;DHT22;31340;51.402;0.016;2023-02-01T15:20:18;13.30;92.20
44775;DHT22;31340;51.402;0.016;2023-02-01T15:23:05;13.30;92.40
44775;DHT22;31340;51.402;0.016;2023-02-01T15:25:38;13.30;92.30
44775;DHT22;31340;51.402;0.016;2023-02-01T15:28:13;13.30;92.40
44775;DHT22;31340;51.402;0.016;2023-02-01T15:30:56;13.30;92.30
44775;DHT22;31340;51.402;0.016;2023-02-01T15:33:25;13.20;92.20
44775;DHT22;31340;51.402;0.016;2023-02-01T15:38:42;13.20;92.30
44775;DHT22;31340;51.402;0.016;2023-02-01T15:41:14;13.10;92.30
44775;DHT22;31340;51.402;0.016;2023-02-01T15:44:14;13.10;92.30
44775;DHT22;31340;51.402;0.016;2023-02-01T15:46:46;13.00;92.40
44775;DHT22;31340;51.402;0.016;2023-02-01T15:49:25;12.90;92.30
44775;DHT22;31340;51.402;0.016;2023-02-01T15:51:54;12.90;92.40
44775;DHT22;31340;51.402;0.016;2023-02-01T15:54:45;12.80;92.50
44775;DHT22;31340;51.402;0.016;2023-02-01T15:57:20;12.80;92.60
44775;DHT22;31340;51.402;0.016;2023-02-01T15:59:52;12.70;92.70
44775;DHT22;31340;51.402;0.016;2023-02-01T16:02:35;12.60;92.70
44775;DHT22;31340;51.402;0.016;2023-02-01T16:05:25;12.60;92.80
44775;DHT22;31340;51.402;0.016;2023-02-01T16:08:02;12.60;92.90
44775;DHT22;31340;51.402;0.016;2023-02-01T16:10:39;12.50;93.00
44775;DHT22;31340;51.402;0.016;2023-02-01T16:13:08;12.40;93.10
44775;DHT22;31340;51.402;0.016;2023-02-01T16:15:36;12.40;93.20
44775;DHT22;31340;51.402;0.016;2023-02-01T16:18:04;12.30;93.30
44775;DHT22;31340;51.402;0.016;2023-02-01T16:20:31;12.30;93.60
44775;DHT22;31340;51.402;0.016;2023-02-01T16:23:02;12.20;93.60
44775;DHT22;31340;51.402;0.016;2023-02-01T16:25:30;12.20;93.70
44775;DHT22;31340;51.402;0.016;2023-02-01T16:27:58;12.20;93.90
44775;DHT22;31340;51.402;0.016;2023-02-01T16:30:26;12.10;93.90
44775;DHT22;31340;51.402;0.016;2023-02-01T16:32:57;12.10;94.00
44775;DHT22;31340;51.402;0.016;2023-02-01T16:35:28;12.10;94.10
44775;DHT22;31340;51.402;0.016;2023-02-01T16:37:58;12.00;94.30
44775;DHT22;31340;51.402;0.016;2023-02-01T16:40:26;12.00;94.40
44775;DHT22;31340;51.402;0.016;2023-02-01T16:42:54;11.90;94.50
44775;DHT22;31340;51.402;0.016;2023-02-01T16:45:24;11.90;94.60
44775;DHT22;31340;51.402;0.016;2023-02-01T16:47:54;11.90;94.80
44775;DHT22;31340;51.402;0.016;2023-02-01T16:50:24;11.80;94.90
44775;DHT22;31340;51.402;0.016;2023-02-01T16:52:53;11.80;94.90
44775;DHT22;31340;51.402;0.016;2023-02-01T16:55:21;11.80;95.00
44775;DHT22;31340;51.402;0.016;2023-02-01T16:57:50;11.80;95.20
44775;DHT22;31340;51.402;0.016;2023-02-01T17:00:18;11.80;95.20
44775;DHT22;31340;51.402;0.016;2023-02-01T17:02:52;11.70;95.20
44775;DHT22;31340;51.402;0.016;2023-02-01T17:05:20;11.70;95.30
44775;DHT22;31340;51.402;0.016;2023-02-01T17:07:49;11.70;95.40
44775;DHT22;31340;51.402;0.016;2023-02-01T17:10:25;11.70;95.50
44775;DHT22;31340;51.402;0.016;2023-02-01T17:13:01;11.60;95.60
44775;DHT22;31340;51.402;0.016;2023-02-01T17:15:34;11.60;95.70
44775;DHT22;31340;51.402;0.016;2023-02-01T17:18:03;11.60;95.80
44775;DHT22;31340;51.402;0.016;2023-02-01T17:20:31;11.60;95.80
44775;DHT22;31340;51.402;0.016;2023-02-01T17:22:59;11.50;96.20
44775;DHT22;31340;51.402;0.016;2023-02-01T17:25:30;11.50;95.90
44775;DHT22;31340;51.402;0.016;2023-02-01T17:27:58;11.50;96.00
44775;DHT22;31340;51.402;0.016;2023-02-01T17:30:26;11.50;96.00
44775;DHT22;31340;51.402;0.016;2023-02-01T17:32:54;11.40;96.20
44775;DHT22;31340;51.402;0.016;2023-02-01T17:35:25;11.50;96.20
44775;DHT22;31340;51.402;0.016;2023-02-01T17:37:54;11.50;96.30
44775;DHT22;31340;51.402;0.016;2023-02-01T17:40:22;11.50;96.40
44775;DHT22;31340;51.402;0.016;2023-02-01T17:42:50;11.40;96.40
44775;DHT22;31340;51.402;0.016;2023-02-01T17:45:37;11.40;96.50
44775;DHT22;31340;51.402;0.016;2023-02-01T17:48:07;11.40;96.60
44775;DHT22;31340;51.402;0.016;2023-02-01T17:50:36;11.40;96.50
44775;DHT22;31340;51.402;0.016;2023-02-01T17:53:05;11.30;96.60
44775;DHT22;31340;51.402;0.016;2023-02-01T17:55:39;11.30;96.80
44775;DHT22;31340;51.402;0.016;2023-02-01T17:58:09;11.30;96.80
44775;DHT22;31340;51.402;0.016;2023-02-01T18:00:38;11.30;96.90
44775;DHT22;31340;51.402;0.016;2023-02-01T18:03:20;11.20;96.90
44775;DHT22;31340;51.402;0.016;2023-02-01T18:05:51;11.30;97.10
44775;DHT22;31340;51.402;0.016;2023-02-01T18:08:24;11.20;97.10
44775;DHT22;31340;51.402;0.016;2023-02-01T18:10:55;11.20;97.20
44775;DHT22;31340;51.402;0.016;2023-02-01T18:13:30;11.20;97.30
44775;DHT22;31340;51.402;0.016;2023-02-01T18:15:58;11.20;97.50
44775;DHT22;31340;51.402;0.016;2023-02-01T18:18:26;11.10;97.50
44775;DHT22;31340;51.402;0.016;2023-02-01T18:20:57;11.10;97.60
44775;DHT22;31340;51.402;0.016;2023-02-01T18:23:24;11.10;97.70
44775;DHT22;31340;51.402;0.016;2023-02-01T18:25:52;11.10;97.70
44775;DHT22;31340;51.402;0.016;2023-02-01T18:28:20;11.10;97.80
44775;DHT22;31340;51.402;0.016;2023-02-01T18:30:49;11.00;97.90
44775;DHT22;31340;51.402;0.016;2023-02-01T18:33:19;11.00;98.10
44775;DHT22;31340;51.402;0.016;2023-02-01T18:35:47;11.00;98.20
44775;DHT22;31340;51.402;0.016;2023-02-01T18:38:15;11.00;98.30
44775;DHT22;31340;51.402;0.016;2023-02-01T18:40:48;11.00;98.40
44775;DHT22;31340;51.402;0.016;2023-02-01T18:43:17;11.00;98.40
44775;DHT22;31340;51.402;0.016;2023-02-01T18:45:44;11.00;98.50
44775;DHT22;31340;51.402;0.016;2023-02-01T18:48:15;10.90;98.60
44775;DHT22;31340;51.402;0.016;2023-02-01T18:50:44;10.90;98.70
44775;DHT22;31340;51.402;0.016;2023-02-01T18:53:14;10.90;98.80
44775;DHT22;31340;51.402;0.016;2023-02-01T18:55:42;10.90;98.90